sensor_id;sensor_type;location;lat;lon;timestamp;temperature;humidity
12704;DHT22;6416;52.182;7.650;2023-01-08T00:02:18;13.80;74.10
12704;DHT22;6416;52.182;7.650;2023-01-08T00:04:43;13.80;74.20
12704;DHT22;6416;52.182;7.650;2023-01-08T00:07:09;13.80;74.20
12704;DHT22;6416;52.182;7.650;2023-01-08T00:09:34;13.80;74.10
12704;DHT22;6416;52.182;7.650;2023-01-08T00:12:00;13.80;74.00
12704;DHT22;6416;52.182;7.650;2023-01-08T00:14:25;13.80;74.10
12704;DHT22;6416;52.182;7.650;2023-01-08T00:16:51;13.80;74.20
12704;DHT22;6416;52.182;7.650;2023-01-08T00:19:16;13.80;74.90
12704;DHT22;6416;52.182;7.650;2023-01-08T00:21:42;13.80;74.30
12704;DHT22;6416;52.182;7.650;2023-01-08T00:24:07;13.80;74.40
12704;DHT22;6416;52.182;7.650;2023-01-08T00:26:33;13.80;74.40
12704;DHT22;6416;52.182;7.650;2023-01-08T00:28:58;13.80;74.30
12704;DHT22;6416;52.182;7.650;2023-01-08T00:31:24;13.80;74.50
12704;DHT22;6416;52.182;7.650;2023-01-08T00:33:49;13.80;74.40
12704;DHT22;6416;52.182;7.650;2023-01-08T00:36:17;13.80;74.40
12704;DHT22;6416;52.182;7.650;2023-01-08T00:38:43;13.80;74.50
12704;DHT22;6416;52.182;7.650;2023-01-08T00:41:09;13.70;74.50
12704;DHT22;6416;52.182;7.650;2023-01-08T00:43:36;13.80;74.70
12704;DHT22;6416;52.182;7.650;2023-01-08T00:46:02;13.80;74.60
12704;DHT22;6416;52.182;7.650;2023-01-08T00:48:29;13.70;74.50
12704;DHT22;6416;52.182;7.650;2023-01-08T00:50:54;13.70;74.60
12704;DHT22;6416;52.182;7.650;2023-01-08T00:53:20;13.70;74.70
12704;DHT22;6416;52.182;7.650;2023-01-08T00:55:46;13.70;74.80
12704;DHT22;6416;52.182;7.650;2023-01-08T00:58:12;13.70;74.90
12704;DHT22;6416;52.182;7.650;2023-01-08T01:00:38;13.70;74.90
12704;DHT22;6416;52.182;7.650;2023-01-08T01:03:04;13.70;75.00
12704;DHT22;6416;52.182;7.650;2023-01-08T01:05:30;13.70;75.10
12704;DHT22;6416;52.182;7.650;2023-01-08T01:07:56;13.70;75.20
12704;DHT22;6416;52.182;7.650;2023-01-08T01:10:22;13.80;75.10
12704;DHT22;6416;52.182;7.650;2023-01-08T01:12:48;13.80;75.20
12704;DHT22;6416;52.182;7.650;2023-01-08T01:15:15;13.70;75.10
12704;DHT22;6416;52.182;7.650;2023-01-08T01:17:42;13.70;75.20
12704;DHT22;6416;52.182;7.650;2023-01-08T01:20:10;13.70;75.30
12704;DHT22;6416;52.182;7.650;2023-01-08T01:22:37;13.80;75.30
12704;DHT22;6416;52.182;7.650;2023-01-08T01:25:03;13.70;75.20
12704;DHT22;6416;52.182;7.650;2023-01-08T01:27:29;13.70;75.10
12704;DHT22;6416;52.182;7.650;2023-01-08T01:29:54;13.70;75.30
12704;DHT22;6416;52.182;7.650;2023-01-08T01:32:20;13.70;75.40
12704;DHT22;6416;52.182;7.650;2023-01-08T01:34:45;13.70;75.30
12704;DHT22;6416;52.182;7.650;2023-01-08T01:37:11;13.70;75.40
12704;DHT22;6416;52.182;7.650;2023-01-08T01:39:37;13.70;75.40
12704;DHT22;6416;52.182;7.650;2023-01-08T01:42:02;13.70;75.40
12704;DHT22;6416;52.182;7.650;2023-01-08T01:44:43;13.70;75.40
12704;DHT22;6416;52.182;7.650;2023-01-08T01:47:35;13.70;75.00
12704;DHT22;6416;52.182;7.650;2023-01-08T01:52:50;13.70;75.30
12704;DHT22;6416;52.182;7.650;2023-01-08T01:55:17;13.80;75.40
12704;DHT22;6416;52.182;7.650;2023-01-08T01:57:49;13.70;75.60
12704;DHT22;6416;52.182;7.650;2023-01-08T02:00:16;13.70;75.50
12704;DHT22;6416;52.182;7.650;2023-01-08T02:02:42;13.70;75.50
12704;DHT22;6416;52.182;7.650;2023-01-08T02:05:08;13.70;75.50
12704;DHT22;6416;52.182;7.650;2023-01-08T02:08:10;13.70;75.20
12704;DHT22;6416;52.182;7.650;2023-01-08T02:10:52;13.70;74.80
12704;DHT22;6416;52.182;7.650;2023-01-08T02:13:32;13.70;74.90
12704;DHT22;6416;52.182;7.650;2023-01-08T02:18:46;13.70;75.00
12704;DHT22;6416;52.182;7.650;2023-01-08T02:24:13;13.60;74.50
12704;DHT22;6416;52.182;7.650;2023-01-08T02:26:43;13.60;75.30
12704;DHT22;6416;52.182;7.650;2023-01-08T02:29:15;13.60;75.30
12704;DHT22;6416;52.182;7.650;2023-01-08T02:31:42;13.60;75.40
12704;DHT22;6416;52.182;7.650;2023-01-08T02:34:08;13.60;75.60
12704;DHT22;6416;52.182;7.650;2023-01-08T02:36:49;13.50;75.50
12704;DHT22;6416;52.182;7.650;2023-01-08T02:39:36;13.50;75.10
12704;DHT22;6416;52.182;7.650;2023-01-08T02:42:22;13.50;74.90
12704;DHT22;6416;52.182;7.650;2023-01-08T02:47:33;13.60;75.50
12704;DHT22;6416;52.182;7.650;2023-01-08T02:50:07;13.60;75.80
12704;DHT22;6416;52.182;7.650;2023-01-08T02:52:40;13.60;75.50
12704;DHT22;6416;52.182;7.650;2023-01-08T02:55:07;13.60;75.80
12704;DHT22;6416;52.182;7.650;2023-01-08T02:57:33;13.60;76.00
12704;DHT22;6416;52.182;7.650;2023-01-08T02:59:59;13.60;75.90
12704;DHT22;6416;52.182;7.650;2023-01-08T03:02:27;13.60;75.80
12704;DHT22;6416;52.182;7.650;2023-01-08T03:05:00;13.60;75.70
12704;DHT22;6416;52.182;7.650;2023-01-08T03:07:27;13.60;75.40
12704;DHT22;6416;52.182;7.650;2023-01-08T03:09:53;13.60;75.70
12704;DHT22;6416;52.182;7.650;2023-01-08T03:12:43;13.60;76.30
12704;DHT22;6416;52.182;7.650;2023-01-08T03:15:12;13.60;75.10
12704;DHT22;6416;52.182;7.650;2023-01-08T03:17:47;13.60;75.40
12704;DHT22;6416;52.182;7.650;2023-01-08T03:20:18;13.60;75.10
12704;DHT22;6416;52.182;7.650;2023-01-08T03:22:47;13.60;75.70
12704;DHT22;6416;52.182;7.650;2023-01-08T03:25:15;13.50;75.60
12704;DHT22;6416;52.182;7.650;2023-01-08T03:27:46;13.50;75.70
12704;DHT22;6416;52.182;7.650;2023-01-08T03:30:13;13.50;75.60
12704;DHT22;6416;52.182;7.650;2023-01-08T03:32:40;13.50;76.50
12704;DHT22;6416;52.182;7.650;2023-01-08T03:35:08;13.50;75.70
12704;DHT22;6416;52.182;7.650;2023-01-08T03:37:39;13.50;75.80
12704;DHT22;6416;52.182;7.650;2023-01-08T03:40:07;13.50;75.70
12704;DHT22;6416;52.182;7.650;2023-01-08T03:42:34;13.50;75.90
12704;DHT22;6416;52.182;7.650;2023-01-08T03:45:00;13.50;76.10
12704;DHT22;6416;52.182;7.650;2023-01-08T03:47:30;13.50;76.10
12704;DHT22;6416;52.182;7.650;2023-01-08T03:50:00;13.40;76.00
12704;DHT22;6416;52.182;7.650;2023-01-08T03:52:30;13.40;75.90
12704;DHT22;6416;52.182;7.650;2023-01-08T03:54:56;13.50;75.90
12704;DHT22;6416;52.182;7.650;2023-01-08T03:57:22;13.40;75.80
12704;DHT22;6416;52.182;7.650;2023-01-08T03:59:47;13.40;76.00
12704;DHT22;6416;52.182;7.650;2023-01-08T04:02:13;13.40;76.10
12704;DHT22;6416;52.182;7.650;2023-01-08T04:04:38;13.40;76.20
12704;DHT22;6416;52.182;7.650;2023-01-08T04:07:05;13.40;76.30
12704;DHT22;6416;52.182;7.650;2023-01-08T04:09:31;13.40;76.30
12704;DHT22;6416;52.182;7.650;2023-01-08T04:11:57;13.50;76.60
12704;DHT22;6416;52.182;7.650;2023-01-08T04:14:22;13.50;76.70
12704;DHT22;6416;52.182;7.650;2023-01-08T04:16:47;13.50;76.70
12704;DHT22;6416;52.182;7.650;2023-01-08T04:19:13;13.40;76.50
12704;DHT22;6416;52.182;7.650;2023-01-08T04:21:42;13.50;76.50
12704;DHT22;6416;52.182;7.650;2023-01-08T04:24:07;13.50;76.50
12704;DHT22;6416;52.182;7.650;2023-01-08T04:26:33;13.50;76.50
12704;DHT22;6416;52.182;7.650;2023-01-08T04:29:00;13.50;76.60
12704;DHT22;6416;52.182;7.650;2023-01-08T04:31:26;13.50;76.60
12704;DHT22;6416;52.182;7.650;2023-01-08T04:33:51;13.60;76.70
12704;DHT22;6416;52.182;7.650;2023-01-08T04:36:17;13.50;76.60
12704;DHT22;6416;52.182;7.650;2023-01-08T04:38:42;13.60;76.60
12704;DHT22;6416;52.182;7.650;2023-01-08T04:41:08;13.60;76.50
12704;DHT22;6416;52.182;7.650;2023-01-08T04:43:34;13.60;76.50
12704;DHT22;6416;52.182;7.650;2023-01-08T04:46:00;13.60;76.50
12704;DHT22;6416;52.182;7.650;2023-01-08T04:48:27;13.60;76.50
12704;DHT22;6416;52.182;7.650;2023-01-08T04:50:53;13.60;76.60
12704;DHT22;6416;52.182;7.650;2023-01-08T04:53:18;13.60;76.70
12704;DHT22;6416;52.182;7.650;2023-01-08T04:55:44;13.60;76.70
12704;DHT22;6416;52.182;7.650;2023-01-08T04:58:10;13.60;76.70
12704;DHT22;6416;52.182;7.650;2023-01-08T05:00:35;13.60;76.70
12704;DHT22;6416;52.182;7.650;2023-01-08T05:03:02;13.60;76.60
12704;DHT22;6416;52.182;7.650;2023-01-08T05:05:28;13.60;76.80
12704;DHT22;6416;52.182;7.650;2023-01-08T05:07:53;13.60;76.70
12704;DHT22;6416;52.182;7.650;2023-01-08T05:10:19;13.60;76.80
12704;DHT22;6416;52.182;7.650;2023-01-08T05:12:44;13.60;76.70
12704;DHT22;6416;52.182;7.650;2023-01-08T05:15:10;13.60;76.70
12704;DHT22;6416;52.182;7.650;2023-01-08T05:17:35;13.60;76.60
12704;DHT22;6416;52.182;7.650;2023-01-08T05:20:01;13.60;76.60
12704;DHT22;6416;52.182;7.650;2023-01-08T05:22:26;13.60;76.50
12704;DHT22;6416;52.182;7.650;2023-01-08T05:24:52;13.60;76.50
12704;DHT22;6416;52.182;7.650;2023-01-08T05:27:17;13.70;76.50
12704;DHT22;6416;52.182;7.650;2023-01-08T05:29:43;13.60;76.30
12704;DHT22;6416;52.182;7.650;2023-01-08T05:32:18;13.60;76.50
12704;DHT22;6416;52.182;7.650;2023-01-08T05:34:44;13.60;76.00
12704;DHT22;6416;52.182;7.650;2023-01-08T05:37:10;13.60;76.40
12704;DHT22;6416;52.182;7.650;2023-01-08T05:39:36;13.50;76.50
12704;DHT22;6416;52.182;7.650;2023-01-08T05:42:02;13.60;76.60
12704;DHT22;6416;52.182;7.650;2023-01-08T05:44:27;13.60;76.70
12704;DHT22;6416;52.182;7.650;2023-01-08T05:46:53;13.60;76.60
12704;DHT22;6416;52.182;7.650;2023-01-08T05:49:19;13.60;76.80
12704;DHT22;6416;52.182;7.650;2023-01-08T05:51:44;13.60;76.80
12704;DHT22;6416;52.182;7.650;2023-01-08T05:54:10;13.60;76.90
12704;DHT22;6416;52.182;7.650;2023-01-08T05:56:35;13.60;76.70
12704;DHT22;6416;52.182;7.650;2023-01-08T05:59:01;13.60;76.90
12704;DHT22;6416;52.182;7.650;2023-01-08T06:01:26;13.60;76.70
12704;DHT22;6416;52.182;7.650;2023-01-08T06:03:54;13.60;76.70
12704;DHT22;6416;52.182;7.650;2023-01-08T06:06:20;13.60;76.60
12704;DHT22;6416;52.182;7.650;2023-01-08T06:08:45;13.60;76.80
12704;DHT22;6416;52.182;7.650;2023-01-08T06:11:11;13.60;77.10
12704;DHT22;6416;52.182;7.650;2023-01-08T06:13:41;13.50;77.00
12704;DHT22;6416;52.182;7.650;2023-01-08T06:16:07;13.50;77.10
12704;DHT22;6416;52.182;7.650;2023-01-08T06:18:32;13.40;77.20
12704;DHT22;6416;52.182;7.650;2023-01-08T06:20:58;13.40;77.30
12704;DHT22;6416;52.182;7.650;2023-01-08T06:23:23;13.30;77.30
12704;DHT22;6416;52.182;7.650;2023-01-08T06:25:53;13.30;77.50
12704;DHT22;6416;52.182;7.650;2023-01-08T06:28:19;13.20;77.50
12704;DHT22;6416;52.182;7.650;2023-01-08T06:30:45;13.20;77.60
12704;DHT22;6416;52.182;7.650;2023-01-08T06:33:11;13.20;77.80
12704;DHT22;6416;52.182;7.650;2023-01-08T06:35:36;13.10;77.80
12704;DHT22;6416;52.182;7.650;2023-01-08T06:38:02;13.10;77.90
12704;DHT22;6416;52.182;7.650;2023-01-08T06:40:27;13.00;77.80
12704;DHT22;6416;52.182;7.650;2023-01-08T06:42:53;13.00;77.80
12704;DHT22;6416;52.182;7.650;2023-01-08T06:45:18;12.90;77.70
12704;DHT22;6416;52.182;7.650;2023-01-08T06:47:44;12.90;77.70
12704;DHT22;6416;52.182;7.650;2023-01-08T06:50:10;12.90;77.80
12704;DHT22;6416;52.182;7.650;2023-01-08T06:52:35;12.80;77.80
12704;DHT22;6416;52.182;7.650;2023-01-08T06:55:04;12.80;78.00
12704;DHT22;6416;52.182;7.650;2023-01-08T06:57:30;12.80;78.00
12704;DHT22;6416;52.182;7.650;2023-01-08T06:59:56;12.70;78.20
12704;DHT22;6416;52.182;7.650;2023-01-08T07:02:21;12.70;78.50
12704;DHT22;6416;52.182;7.650;2023-01-08T07:04:47;12.70;78.70
12704;DHT22;6416;52.182;7.650;2023-01-08T07:07:13;12.70;78.80
12704;DHT22;6416;52.182;7.650;2023-01-08T07:09:42;12.70;78.80
12704;DHT22;6416;52.182;7.650;2023-01-08T07:12:14;12.70;78.90
12704;DHT22;6416;52.182;7.650;2023-01-08T07:14:40;12.70;79.00
12704;DHT22;6416;52.182;7.650;2023-01-08T07:17:05;12.70;79.20
12704;DHT22;6416;52.182;7.650;2023-01-08T07:19:31;12.70;79.40
12704;DHT22;6416;52.182;7.650;2023-01-08T07:21:56;12.70;79.50
12704;DHT22;6416;52.182;7.650;2023-01-08T07:24:22;12.70;79.60
12704;DHT22;6416;52.182;7.650;2023-01-08T07:26:47;12.70;79.70
12704;DHT22;6416;52.182;7.650;2023-01-08T07:29:13;12.70;79.50
12704;DHT22;6416;52.182;7.650;2023-01-08T07:31:38;12.70;79.00
12704;DHT22;6416;52.182;7.650;2023-01-08T07:34:04;12.60;78.30
12704;DHT22;6416;52.182;7.650;2023-01-08T07:36:29;12.50;78.10
12704;DHT22;6416;52.182;7.650;2023-01-08T07:38:55;12.50;78.00
12704;DHT22;6416;52.182;7.650;2023-01-08T07:41:20;12.40;77.90
12704;DHT22;6416;52.182;7.650;2023-01-08T07:43:46;12.30;78.10
12704;DHT22;6416;52.182;7.650;2023-01-08T07:46:12;12.20;78.20
12704;DHT22;6416;52.182;7.650;2023-01-08T07:48:37;12.10;78.30
12704;DHT22;6416;52.182;7.650;2023-01-08T07:51:05;12.10;79.10
12704;DHT22;6416;52.182;7.650;2023-01-08T07:53:31;12.00;78.60
12704;DHT22;6416;52.182;7.650;2023-01-08T07:56:01;12.00;78.70
12704;DHT22;6416;52.182;7.650;2023-01-08T07:58:27;11.90;78.90
12704;DHT22;6416;52.182;7.650;2023-01-08T08:00:53;11.80;79.10
12704;DHT22;6416;52.182;7.650;2023-01-08T08:03:18;11.80;79.40
12704;DHT22;6416;52.182;7.650;2023-01-08T08:05:44;11.70;79.50
12704;DHT22;6416;52.182;7.650;2023-01-08T08:08:10;11.70;79.90
12704;DHT22;6416;52.182;7.650;2023-01-08T08:10:37;11.70;80.10
12704;DHT22;6416;52.182;7.650;2023-01-08T08:13:06;11.70;80.20
12704;DHT22;6416;52.182;7.650;2023-01-08T08:15:32;11.70;80.20
12704;DHT22;6416;52.182;7.650;2023-01-08T08:17:58;11.70;80.40
12704;DHT22;6416;52.182;7.650;2023-01-08T08:20:23;11.60;80.40
12704;DHT22;6416;52.182;7.650;2023-01-08T08:22:49;11.60;80.60
12704;DHT22;6416;52.182;7.650;2023-01-08T08:25:18;11.60;80.70
12704;DHT22;6416;52.182;7.650;2023-01-08T08:27:44;11.60;80.80
12704;DHT22;6416;52.182;7.650;2023-01-08T08:30:10;11.60;81.00
12704;DHT22;6416;52.182;7.650;2023-01-08T08:32:36;11.60;81.00
12704;DHT22;6416;52.182;7.650;2023-01-08T08:35:02;11.60;81.10
12704;DHT22;6416;52.182;7.650;2023-01-08T08:37:28;11.70;81.20
12704;DHT22;6416;52.182;7.650;2023-01-08T08:39:53;11.60;81.10
12704;DHT22;6416;52.182;7.650;2023-01-08T08:42:19;11.60;81.20
12704;DHT22;6416;52.182;7.650;2023-01-08T08:44:44;11.60;81.10
12704;DHT22;6416;52.182;7.650;2023-01-08T08:47:10;11.60;81.10
12704;DHT22;6416;52.182;7.650;2023-01-08T08:49:35;11.60;81.00
12704;DHT22;6416;52.182;7.650;2023-01-08T08:52:01;11.60;80.90
12704;DHT22;6416;52.182;7.650;2023-01-08T08:54:27;11.60;80.80
12704;DHT22;6416;52.182;7.650;2023-01-08T08:56:52;11.60;80.90
12704;DHT22;6416;52.182;7.650;2023-01-08T08:59:18;11.60;81.10
12704;DHT22;6416;52.182;7.650;2023-01-08T09:01:44;11.60;81.30
12704;DHT22;6416;52.182;7.650;2023-01-08T09:04:09;11.60;81.60
12704;DHT22;6416;52.182;7.650;2023-01-08T09:06:35;11.70;81.80
12704;DHT22;6416;52.182;7.650;2023-01-08T09:09:00;11.60;81.70
12704;DHT22;6416;52.182;7.650;2023-01-08T09:11:26;11.70;82.00
12704;DHT22;6416;52.182;7.650;2023-01-08T09:13:51;11.70;82.00
12704;DHT22;6416;52.182;7.650;2023-01-08T09:16:17;11.70;81.90
12704;DHT22;6416;52.182;7.650;2023-01-08T09:18:42;11.70;83.10
12704;DHT22;6416;52.182;7.650;2023-01-08T09:21:08;11.70;82.40
12704;DHT22;6416;52.182;7.650;2023-01-08T09:23:34;11.90;84.10
12704;DHT22;6416;52.182;7.650;2023-01-08T09:26:00;12.20;86.10
12704;DHT22;6416;52.182;7.650;2023-01-08T09:28:26;12.50;88.00
12704;DHT22;6416;52.182;7.650;2023-01-08T09:30:51;12.90;89.50
12704;DHT22;6416;52.182;7.650;2023-01-08T09:33:17;13.30;89.30
12704;DHT22;6416;52.182;7.650;2023-01-08T09:35:43;13.80;88.50
12704;DHT22;6416;52.182;7.650;2023-01-08T09:38:09;14.20;88.40
12704;DHT22;6416;52.182;7.650;2023-01-08T09:40:39;14.80;85.20
12704;DHT22;6416;52.182;7.650;2023-01-08T09:43:09;15.20;86.00
12704;DHT22;6416;52.182;7.650;2023-01-08T09:45:39;15.70;86.20
12704;DHT22;6416;52.182;7.650;2023-01-08T09:48:11;16.20;86.30
12704;DHT22;6416;52.182;7.650;2023-01-08T09:50:37;16.60;85.00
12704;DHT22;6416;52.182;7.650;2023-01-08T09:53:03;17.10;83.50
12704;DHT22;6416;52.182;7.650;2023-01-08T09:55:32;17.40;82.90
12704;DHT22;6416;52.182;7.650;2023-01-08T09:57:58;17.70;81.90
12704;DHT22;6416;52.182;7.650;2023-01-08T10:00:29;18.00;80.90
12704;DHT22;6416;52.182;7.650;2023-01-08T10:02:55;18.30;80.40
12704;DHT22;6416;52.182;7.650;2023-01-08T10:05:21;18.50;80.00
12704;DHT22;6416;52.182;7.650;2023-01-08T10:07:47;18.80;79.70
12704;DHT22;6416;52.182;7.650;2023-01-08T10:10:26;19.00;78.70
12704;DHT22;6416;52.182;7.650;2023-01-08T10:12:53;19.20;73.90
12704;DHT22;6416;52.182;7.650;2023-01-08T10:15:20;19.50;78.00
12704;DHT22;6416;52.182;7.650;2023-01-08T10:18:02;19.70;75.80
12704;DHT22;6416;52.182;7.650;2023-01-08T10:20:30;19.90;73.10
12704;DHT22;6416;52.182;7.650;2023-01-08T10:22:55;20.00;74.50
12704;DHT22;6416;52.182;7.650;2023-01-08T10:25:32;20.10;73.10
12704;DHT22;6416;52.182;7.650;2023-01-08T10:27:59;20.20;71.80
12704;DHT22;6416;52.182;7.650;2023-01-08T10:30:37;20.30;71.90
12704;DHT22;6416;52.182;7.650;2023-01-08T10:33:06;20.30;70.80
12704;DHT22;6416;52.182;7.650;2023-01-08T10:35:37;20.50;72.20
12704;DHT22;6416;52.182;7.650;2023-01-08T10:38:03;20.60;72.30
12704;DHT22;6416;52.182;7.650;2023-01-08T10:40:34;20.70;71.50
12704;DHT22;6416;52.182;7.650;2023-01-08T10:43:27;20.80;70.00
12704;DHT22;6416;52.182;7.650;2023-01-08T10:45:59;20.90;68.70
12704;DHT22;6416;52.182;7.650;2023-01-08T10:48:44;20.90;70.10
12704;DHT22;6416;52.182;7.650;2023-01-08T10:53:43;20.80;67.30
12704;DHT22;6416;52.182;7.650;2023-01-08T10:56:23;20.80;67.80
12704;DHT22;6416;52.182;7.650;2023-01-08T10:58:50;20.60;64.70
12704;DHT22;6416;52.182;7.650;2023-01-08T11:01:28;20.40;67.20
12704;DHT22;6416;52.182;7.650;2023-01-08T11:04:00;20.30;66.00
12704;DHT22;6416;52.182;7.650;2023-01-08T11:06:31;20.30;67.50
12704;DHT22;6416;52.182;7.650;2023-01-08T11:09:18;20.30;68.20
12704;DHT22;6416;52.182;7.650;2023-01-08T11:11:46;20.50;69.20
12704;DHT22;6416;52.182;7.650;2023-01-08T11:14:20;20.70;70.50
12704;DHT22;6416;52.182;7.650;2023-01-08T11:16:47;21.10;69.60
12704;DHT22;6416;52.182;7.650;2023-01-08T11:19:22;21.40;69.70
12704;DHT22;6416;52.182;7.650;2023-01-08T11:21:56;21.70;67.20
12704;DHT22;6416;52.182;7.650;2023-01-08T11:24:30;22.00;65.40
12704;DHT22;6416;52.182;7.650;2023-01-08T11:34:54;23.00;62.70
12704;DHT22;6416;52.182;7.650;2023-01-08T11:37:27;23.20;63.50
12704;DHT22;6416;52.182;7.650;2023-01-08T11:39:54;23.40;64.50
12704;DHT22;6416;52.182;7.650;2023-01-08T11:50:29;22.40;58.00
12704;DHT22;6416;52.182;7.650;2023-01-08T11:53:22;22.20;58.00
12704;DHT22;6416;52.182;7.650;2023-01-08T12:02:21;21.70;58.80
12704;DHT22;6416;52.182;7.650;2023-01-08T12:04:57;21.50;60.80
12704;DHT22;6416;52.182;7.650;2023-01-08T12:07:31;21.20;59.00
12704;DHT22;6416;52.182;7.650;2023-01-08T12:10:23;20.90;59.60
12704;DHT22;6416;52.182;7.650;2023-01-08T12:15:51;20.20;60.50
12704;DHT22;6416;52.182;7.650;2023-01-08T12:18:42;20.00;59.40
12704;DHT22;6416;52.182;7.650;2023-01-08T12:21:32;19.80;60.10
12704;DHT22;6416;52.182;7.650;2023-01-08T12:27:10;19.50;61.40
12704;DHT22;6416;52.182;7.650;2023-01-08T12:30:12;19.30;60.40
12704;DHT22;6416;52.182;7.650;2023-01-08T12:32:45;19.20;60.90
12704;DHT22;6416;52.182;7.650;2023-01-08T12:35:13;19.10;62.10
12704;DHT22;6416;52.182;7.650;2023-01-08T12:40:27;19.00;63.40
12704;DHT22;6416;52.182;7.650;2023-01-08T12:42:57;19.00;62.60
12704;DHT22;6416;52.182;7.650;2023-01-08T12:45:35;18.90;63.30
12704;DHT22;6416;52.182;7.650;2023-01-08T12:48:18;18.90;60.80
12704;DHT22;6416;52.182;7.650;2023-01-08T12:51:13;18.80;61.20
12704;DHT22;6416;52.182;7.650;2023-01-08T12:53:48;18.70;60.90
12704;DHT22;6416;52.182;7.650;2023-01-08T12:56:36;18.60;62.00
12704;DHT22;6416;52.182;7.650;2023-01-08T12:59:14;18.50;61.70
12704;DHT22;6416;52.182;7.650;2023-01-08T13:01:51;18.30;61.10
12704;DHT22;6416;52.182;7.650;2023-01-08T13:04:17;18.20;61.10
12704;DHT22;6416;52.182;7.650;2023-01-08T13:06:59;18.10;61.80
12704;DHT22;6416;52.182;7.650;2023-01-08T13:09:26;17.90;61.40
12704;DHT22;6416;52.182;7.650;2023-01-08T13:11:53;17.80;62.30
12704;DHT22;6416;52.182;7.650;2023-01-08T13:14:20;17.70;62.10
12704;DHT22;6416;52.182;7.650;2023-01-08T13:16:47;17.50;61.90
12704;DHT22;6416;52.182;7.650;2023-01-08T13:19:26;17.40;62.30
12704;DHT22;6416;52.182;7.650;2023-01-08T13:21:54;17.20;62.50
12704;DHT22;6416;52.182;7.650;2023-01-08T13:24:35;17.00;62.50
12704;DHT22;6416;52.182;7.650;2023-01-08T13:29:47;16.60;62.60
12704;DHT22;6416;52.182;7.650;2023-01-08T13:32:49;16.40;62.80
12704;DHT22;6416;52.182;7.650;2023-01-08T13:37:45;16.00;63.90
12704;DHT22;6416;52.182;7.650;2023-01-08T13:42:59;15.70;64.60
12704;DHT22;6416;52.182;7.650;2023-01-08T13:45:26;15.60;65.30
12704;DHT22;6416;52.182;7.650;2023-01-08T13:47:51;15.50;65.60
12704;DHT22;6416;52.182;7.650;2023-01-08T13:50:21;15.40;66.10
12704;DHT22;6416;52.182;7.650;2023-01-08T13:52:49;15.30;66.30
12704;DHT22;6416;52.182;7.650;2023-01-08T13:55:37;15.30;66.40
12704;DHT22;6416;52.182;7.650;2023-01-08T13:58:17;15.20;65.50
12704;DHT22;6416;52.182;7.650;2023-01-08T14:00:44;15.20;65.80
12704;DHT22;6416;52.182;7.650;2023-01-08T14:03:28;15.20;65.80
12704;DHT22;6416;52.182;7.650;2023-01-08T14:08:58;15.10;65.20
12704;DHT22;6416;52.182;7.650;2023-01-08T14:11:28;15.20;66.30
12704;DHT22;6416;52.182;7.650;2023-01-08T14:13:55;15.20;67.80
12704;DHT22;6416;52.182;7.650;2023-01-08T14:16:21;15.30;68.20
12704;DHT22;6416;52.182;7.650;2023-01-08T14:18:47;15.40;68.00
12704;DHT22;6416;52.182;7.650;2023-01-08T14:21:13;15.50;66.90
12704;DHT22;6416;52.182;7.650;2023-01-08T14:23:40;15.60;66.40
12704;DHT22;6416;52.182;7.650;2023-01-08T14:26:07;15.60;66.10
12704;DHT22;6416;52.182;7.650;2023-01-08T14:28:50;15.60;65.20
12704;DHT22;6416;52.182;7.650;2023-01-08T14:31:24;15.60;63.30
12704;DHT22;6416;52.182;7.650;2023-01-08T14:33:51;15.50;63.70
12704;DHT22;6416;52.182;7.650;2023-01-08T14:36:17;15.40;64.40
12704;DHT22;6416;52.182;7.650;2023-01-08T14:38:44;15.30;64.20
12704;DHT22;6416;52.182;7.650;2023-01-08T14:41:13;15.20;63.70
12704;DHT22;6416;52.182;7.650;2023-01-08T14:43:44;15.10;63.40
12704;DHT22;6416;52.182;7.650;2023-01-08T14:48:46;14.90;64.00
12704;DHT22;6416;52.182;7.650;2023-01-08T14:51:14;14.80;64.50
12704;DHT22;6416;52.182;7.650;2023-01-08T14:53:49;14.70;64.70
12704;DHT22;6416;52.182;7.650;2023-01-08T14:56:19;14.60;65.00
12704;DHT22;6416;52.182;7.650;2023-01-08T14:58:46;14.40;64.90
12704;DHT22;6416;52.182;7.650;2023-01-08T15:01:19;14.30;65.30
12704;DHT22;6416;52.182;7.650;2023-01-08T15:03:47;14.30;65.40
12704;DHT22;6416;52.182;7.650;2023-01-08T15:06:27;14.20;65.70
12704;DHT22;6416;52.182;7.650;2023-01-08T15:08:53;14.10;65.20
12704;DHT22;6416;52.182;7.650;2023-01-08T15:11:26;14.00;66.00
12704;DHT22;6416;52.182;7.650;2023-01-08T15:13:53;13.90;66.30
12704;DHT22;6416;52.182;7.650;2023-01-08T15:21:30;13.70;66.50
12704;DHT22;6416;52.182;7.650;2023-01-08T15:23:57;13.70;66.90
12704;DHT22;6416;52.182;7.650;2023-01-08T15:26:24;13.60;66.90
12704;DHT22;6416;52.182;7.650;2023-01-08T15:29:00;13.50;67.10
12704;DHT22;6416;52.182;7.650;2023-01-08T15:33:52;13.40;67.30
12704;DHT22;6416;52.182;7.650;2023-01-08T15:36:17;13.30;67.50
12704;DHT22;6416;52.182;7.650;2023-01-08T15:38:43;13.30;67.60
12704;DHT22;6416;52.182;7.650;2023-01-08T15:41:09;13.20;67.80
12704;DHT22;6416;52.182;7.650;2023-01-08T15:43:35;13.20;67.90
12704;DHT22;6416;52.182;7.650;2023-01-08T15:46:00;13.10;68.00
12704;DHT22;6416;52.182;7.650;2023-01-08T15:48:26;13.00;68.10
12704;DHT22;6416;52.182;7.650;2023-01-08T15:50:51;13.00;68.20
12704;DHT22;6416;52.182;7.650;2023-01-08T15:53:20;13.00;68.30
12704;DHT22;6416;52.182;7.650;2023-01-08T15:55:46;12.90;69.00
12704;DHT22;6416;52.182;7.650;2023-01-08T15:58:13;12.90;68.40
12704;DHT22;6416;52.182;7.650;2023-01-08T16:00:40;12.80;68.40
12704;DHT22;6416;52.182;7.650;2023-01-08T16:03:06;12.70;68.50
12704;DHT22;6416;52.182;7.650;2023-01-08T16:05:32;12.60;68.50
12704;DHT22;6416;52.182;7.650;2023-01-08T16:07:58;12.60;68.70
12704;DHT22;6416;52.182;7.650;2023-01-08T16:10:23;12.60;68.80
12704;DHT22;6416;52.182;7.650;2023-01-08T16:12:49;12.50;68.90
12704;DHT22;6416;52.182;7.650;2023-01-08T16:15:15;12.50;69.00
12704;DHT22;6416;52.182;7.650;2023-01-08T16:17:41;12.40;69.00
12704;DHT22;6416;52.182;7.650;2023-01-08T16:20:08;12.40;69.10
12704;DHT22;6416;52.182;7.650;2023-01-08T16:22:34;12.30;69.20
12704;DHT22;6416;52.182;7.650;2023-01-08T16:24:59;12.30;69.30
12704;DHT22;6416;52.182;7.650;2023-01-08T16:27:25;12.30;69.30
12704;DHT22;6416;52.182;7.650;2023-01-08T16:29:50;12.20;69.20
12704;DHT22;6416;52.182;7.650;2023-01-08T16:32:16;12.20;69.40
12704;DHT22;6416;52.182;7.650;2023-01-08T16:34:42;12.10;69.50
12704;DHT22;6416;52.182;7.650;2023-01-08T16:37:07;12.10;69.60
12704;DHT22;6416;52.182;7.650;2023-01-08T16:39:33;12.10;69.70
12704;DHT22;6416;52.182;7.650;2023-01-08T16:41:59;12.00;69.70
12704;DHT22;6416;52.182;7.650;2023-01-08T16:44:25;12.00;69.80
12704;DHT22;6416;52.182;7.650;2023-01-08T16:46:51;12.00;69.90
12704;DHT22;6416;52.182;7.650;2023-01-08T16:49:16;12.00;70.00
12704;DHT22;6416;52.182;7.650;2023-01-08T16:51:42;11.90;70.00
12704;DHT22;6416;52.182;7.650;2023-01-08T16:54:11;11.90;70.20
12704;DHT22;6416;52.182;7.650;2023-01-08T16:56:36;11.90;70.20
12704;DHT22;6416;52.182;7.650;2023-01-08T16:59:02;11.80;70.30
12704;DHT22;6416;52.182;7.650;2023-01-08T17:01:27;11.80;70.30